createdAt,value
2023-01-06T00:00:37.563Z,4.60
2023-01-06T00:03:04.408Z,5.90
2023-01-06T00:05:31.571Z,4.03
2023-01-06T00:07:59.300Z,4.63
2023-01-06T00:10:26.586Z,4.33
2023-01-06T00:12:53.935Z,3.60
2023-01-06T00:15:21.157Z,2.73
2023-01-06T00:17:47.891Z,4.40
2023-01-06T00:20:15.328Z,4.60
2023-01-06T00:22:43.624Z,4.90
2023-01-06T00:25:10.820Z,6.60
2023-01-06T00:27:38.967Z,4.00
2023-01-06T00:30:07.579Z,4.87
2023-01-06T00:32:34.344Z,8.27
2023-01-06T00:35:01.578Z,8.40
2023-01-06T00:37:28.924Z,6.97
2023-01-06T00:39:55.583Z,6.13
2023-01-06T00:42:22.760Z,4.70
2023-01-06T00:44:49.819Z,4.33
2023-01-06T00:47:17.107Z,5.20
2023-01-06T00:49:43.878Z,5.37
2023-01-06T00:52:11.377Z,3.90
2023-01-06T00:54:38.138Z,7.50
2023-01-06T00:57:07.093Z,5.63
2023-01-06T00:59:34.282Z,4.57
2023-01-06T01:02:01.328Z,5.13
2023-01-06T01:04:29.254Z,5.83
2023-01-06T01:06:56.264Z,4.77
2023-01-06T01:09:25.966Z,3.57
2023-01-06T01:12:11.947Z,5.00
2023-01-06T01:14:39.872Z,3.80
2023-01-06T01:17:06.977Z,5.43
2023-01-06T01:19:33.982Z,5.13
2023-01-06T01:22:01.105Z,5.97
2023-01-06T01:24:27.795Z,5.10
2023-01-06T01:26:54.985Z,4.03
2023-01-06T01:29:21.837Z,3.57
2023-01-06T01:31:48.934Z,4.07
2023-01-06T01:34:16.798Z,3.83
2023-01-06T01:36:45.437Z,5.10
2023-01-06T01:39:14.242Z,3.50
2023-01-06T01:41:41.649Z,4.57
2023-01-06T01:44:46.013Z,3.20
2023-01-06T01:47:16.960Z,3.07
2023-01-06T01:49:46.674Z,6.50
2023-01-06T01:52:14.148Z,5.10
2023-01-06T01:54:41.393Z,2.60
2023-01-06T01:57:19.117Z,4.90
2023-01-06T01:59:46.558Z,5.60
2023-01-06T02:02:16.021Z,5.80
2023-01-06T02:04:45.115Z,3.50
2023-01-06T02:07:12.571Z,3.70
2023-01-06T02:10:00.613Z,3.33
2023-01-06T02:12:27.326Z,4.80
2023-01-06T02:14:54.075Z,5.07
2023-01-06T02:17:58.331Z,4.67
2023-01-06T02:20:46.142Z,3.73
2023-01-06T02:23:21.636Z,6.00
2023-01-06T02:26:18.494Z,3.50
2023-01-06T02:29:06.156Z,5.67
2023-01-06T02:31:44.713Z,4.00
2023-01-06T02:34:39.714Z,6.30
2023-01-06T02:37:06.871Z,4.03
2023-01-06T02:40:12.293Z,5.30
2023-01-06T02:42:42.104Z,5.17
2023-01-06T02:45:21.084Z,6.53
2023-01-06T02:47:48.159Z,7.23
2023-01-06T02:50:25.138Z,8.97
2023-01-06T02:53:13.777Z,4.00
2023-01-06T02:55:49.392Z,3.93
2023-01-06T02:58:36.044Z,5.13
2023-01-06T03:01:03.112Z,6.17
2023-01-06T03:03:35.176Z,3.60
2023-01-06T03:06:09.974Z,7.63
2023-01-06T03:08:37.540Z,6.10
2023-01-06T03:11:05.039Z,6.30
2023-01-06T03:14:11.130Z,4.83
2023-01-06T03:16:37.842Z,4.43
2023-01-06T03:19:04.777Z,6.20
2023-01-06T03:21:36.038Z,4.73
2023-01-06T03:24:05.543Z,4.77
2023-01-06T03:26:32.312Z,4.53
2023-01-06T03:29:00.434Z,5.63
2023-01-06T03:32:00.592Z,4.07
2023-01-06T03:34:45.792Z,3.90
2023-01-06T03:37:40.369Z,3.20
2023-01-06T03:40:15.547Z,4.30
2023-01-06T03:43:08.505Z,4.53
2023-01-06T03:45:51.125Z,3.13
2023-01-06T03:48:48.615Z,3.57
2023-01-06T03:51:30.811Z,4.00
2023-01-06T03:54:15.445Z,4.37
2023-01-06T03:56:47.044Z,4.87
2023-01-06T03:59:19.784Z,5.40
2023-01-06T04:01:47.124Z,4.13
2023-01-06T04:04:15.866Z,4.53
2023-01-06T04:06:42.954Z,5.07
2023-01-06T04:09:09.634Z,3.10
2023-01-06T04:11:55.468Z,3.63
2023-01-06T04:14:22.126Z,5.00
2023-01-06T04:16:49.037Z,3.03
2023-01-06T04:19:15.773Z,5.07
2023-01-06T04:21:42.460Z,1.93
2023-01-06T04:24:09.277Z,3.70
2023-01-06T04:26:36.350Z,3.23
2023-01-06T04:29:03.202Z,4.33
2023-01-06T04:31:30.344Z,2.37
2023-01-06T04:33:57.114Z,2.80
2023-01-06T04:36:24.182Z,4.10
2023-01-06T04:38:50.919Z,2.47
2023-01-06T04:41:17.676Z,4.13
2023-01-06T04:43:44.721Z,2.90
2023-01-06T04:46:11.761Z,3.80
2023-01-06T04:48:38.923Z,3.43
2023-01-06T04:51:10.412Z,3.07
2023-01-06T04:53:40.188Z,3.27
2023-01-06T04:56:10.042Z,4.20
2023-01-06T04:58:37.713Z,2.37
2023-01-06T05:01:10.097Z,4.43
2023-01-06T05:03:37.262Z,2.77
2023-01-06T05:06:06.034Z,4.00
2023-01-06T05:08:32.733Z,4.50
2023-01-06T05:11:04.735Z,3.10
2023-01-06T05:13:32.007Z,2.70
2023-01-06T05:15:58.851Z,1.63
2023-01-06T05:18:25.963Z,3.57
2023-01-06T05:20:53.806Z,2.73
2023-01-06T05:23:21.237Z,1.87
2023-01-06T05:25:51.141Z,1.93
2023-01-06T05:28:18.443Z,2.43
2023-01-06T05:30:45.320Z,4.13
2023-01-06T05:33:12.450Z,1.97
2023-01-06T05:35:39.156Z,2.73
2023-01-06T05:38:05.893Z,2.57
2023-01-06T05:40:32.965Z,3.63
2023-01-06T05:42:59.640Z,2.20
2023-01-06T05:45:26.477Z,3.23
2023-01-06T05:47:53.323Z,1.63
2023-01-06T05:50:20.435Z,5.67
2023-01-06T05:52:47.511Z,3.13
2023-01-06T05:55:14.221Z,2.80
2023-01-06T05:57:41.403Z,2.47
2023-01-06T06:00:08.736Z,2.33
2023-01-06T06:02:35.812Z,2.67
2023-01-06T06:05:02.528Z,3.07
2023-01-06T06:07:29.181Z,2.50
2023-01-06T06:09:56.267Z,2.77
2023-01-06T06:12:22.969Z,2.93
2023-01-06T06:14:50.028Z,3.37
2023-01-06T06:17:17.100Z,1.53
2023-01-06T06:19:43.734Z,2.57
2023-01-06T06:22:10.833Z,1.40
2023-01-06T06:24:37.652Z,2.80
2023-01-06T06:27:04.615Z,2.27
2023-01-06T06:29:31.666Z,5.80
2023-01-06T06:31:58.793Z,5.43
2023-01-06T06:34:25.719Z,2.10
2023-01-06T06:36:52.802Z,1.70
2023-01-06T06:39:19.912Z,3.03
2023-01-06T06:41:46.955Z,1.77
2023-01-06T06:44:13.596Z,2.20
2023-01-06T06:46:40.472Z,3.40
2023-01-06T06:49:07.574Z,3.40
2023-01-06T06:51:36.084Z,2.57
2023-01-06T06:54:04.121Z,2.07
2023-01-06T06:56:30.819Z,1.30
2023-01-06T06:58:57.876Z,1.63
2023-01-06T07:01:25.093Z,1.80
2023-01-06T07:03:52.293Z,1.87
2023-01-06T07:06:26.137Z,1.70
2023-01-06T07:08:54.461Z,1.47
2023-01-06T07:11:21.469Z,1.50
2023-01-06T07:13:48.623Z,2.20
2023-01-06T07:16:16.035Z,1.97
2023-01-06T07:18:42.821Z,1.57
2023-01-06T07:21:09.603Z,2.30
2023-01-06T07:23:36.758Z,3.13
2023-01-06T07:26:03.899Z,1.80
2023-01-06T07:28:31.642Z,1.50
2023-01-06T07:30:58.648Z,4.13
2023-01-06T07:33:25.375Z,1.60
2023-01-06T07:35:54.010Z,2.47
2023-01-06T07:38:20.729Z,2.30
2023-01-06T07:40:47.899Z,2.87
2023-01-06T07:43:14.776Z,4.17
2023-01-06T07:45:41.873Z,1.87
2023-01-06T07:48:09.677Z,2.50
2023-01-06T07:50:36.378Z,3.07
2023-01-06T07:53:03.994Z,1.40
2023-01-06T07:55:31.169Z,2.70
2023-01-06T07:57:58.934Z,1.57
2023-01-06T08:00:26.460Z,3.27
2023-01-06T08:02:53.344Z,1.20
2023-01-06T08:05:20.533Z,1.90
2023-01-06T08:07:47.203Z,2.33
2023-01-06T08:10:13.851Z,2.63
2023-01-06T08:12:40.979Z,2.03
2023-01-06T08:15:08.195Z,3.87
2023-01-06T08:17:34.898Z,2.20
2023-01-06T08:20:01.589Z,1.70
2023-01-06T08:22:28.287Z,2.77
2023-01-06T08:24:55.431Z,2.40
2023-01-06T08:27:22.575Z,1.67
2023-01-06T08:29:50.111Z,2.23
2023-01-06T08:32:17.447Z,1.73
2023-01-06T08:34:44.577Z,2.63
2023-01-06T08:37:11.745Z,2.47
2023-01-06T08:39:38.488Z,1.77
2023-01-06T08:42:05.435Z,1.63
2023-01-06T08:44:32.539Z,2.27
2023-01-06T08:46:59.673Z,3.17
2023-01-06T08:49:26.340Z,2.63
2023-01-06T08:51:53.274Z,1.80
2023-01-06T08:54:20.334Z,1.20
2023-01-06T08:56:47.089Z,1.30
2023-01-06T08:59:16.743Z,1.20
2023-01-06T09:01:44.580Z,1.97
2023-01-06T09:04:12.389Z,3.93
2023-01-06T09:06:41.700Z,4.30
2023-01-06T09:09:09.129Z,0.90
2023-01-06T09:11:35.908Z,1.17
2023-01-06T09:14:02.977Z,2.30
2023-01-06T09:16:30.300Z,1.47
2023-01-06T09:18:57.398Z,1.00
2023-01-06T09:21:25.133Z,2.10
2023-01-06T09:23:52.128Z,2.60
2023-01-06T09:26:20.072Z,1.87
2023-01-06T09:28:47.449Z,3.13
2023-01-06T09:31:14.207Z,1.30
2023-01-06T09:33:40.990Z,1.60
2023-01-06T09:36:08.193Z,3.03
2023-01-06T09:38:34.984Z,1.43
2023-01-06T09:41:10.625Z,2.60
2023-01-06T09:43:40.069Z,3.23
2023-01-06T09:46:10.372Z,1.60
2023-01-06T09:48:49.560Z,2.37
2023-01-06T09:51:22.582Z,1.20
2023-01-06T09:53:56.776Z,1.17
2023-01-06T09:56:24.795Z,2.00
2023-01-06T09:59:11.705Z,2.83
2023-01-06T10:01:43.338Z,2.53
2023-01-06T10:04:25.655Z,3.87
2023-01-06T10:07:04.347Z,1.37
2023-01-06T10:10:09.433Z,2.53
2023-01-06T10:12:51.483Z,2.83
2023-01-06T10:15:29.872Z,2.03
2023-01-06T10:18:05.317Z,3.77
2023-01-06T10:20:40.877Z,2.37
2023-01-06T10:23:13.643Z,2.00
2023-01-06T10:25:41.578Z,4.73
2023-01-06T10:28:19.556Z,2.83
2023-01-06T10:30:50.492Z,3.23
2023-01-06T10:33:29.644Z,1.90
2023-01-06T10:35:58.063Z,1.13
2023-01-06T10:38:33.897Z,1.87
2023-01-06T10:41:12.116Z,1.20
2023-01-06T10:43:38.852Z,3.00
2023-01-06T10:46:05.939Z,2.50
2023-01-06T10:48:34.250Z,1.90
2023-01-06T10:51:38.248Z,1.70
2023-01-06T10:54:17.094Z,2.30
2023-01-06T10:56:48.349Z,2.73
2023-01-06T10:59:15.482Z,1.63
2023-01-06T11:01:53.163Z,1.70
2023-01-06T11:04:21.413Z,2.23
2023-01-06T11:07:02.663Z,1.57
2023-01-06T11:09:47.426Z,2.40
2023-01-06T11:12:26.861Z,1.30
2023-01-06T11:15:03.233Z,1.43
2023-01-06T11:17:30.378Z,1.87
2023-01-06T11:20:29.219Z,1.20
2023-01-06T11:22:57.291Z,3.33
2023-01-06T11:25:32.210Z,1.27
2023-01-06T11:28:20.951Z,1.13
2023-01-06T11:31:06.835Z,0.97
2023-01-06T11:33:37.547Z,1.20
2023-01-06T11:36:10.180Z,1.13
2023-01-06T11:39:03.830Z,2.00
2023-01-06T11:41:39.683Z,3.57
2023-01-06T11:44:37.332Z,1.87
2023-01-06T11:47:12.288Z,1.60
2023-01-06T11:49:47.648Z,1.40
2023-01-06T11:52:33.381Z,2.30
2023-01-06T11:55:00.503Z,1.30
2023-01-06T11:57:32.910Z,1.30
2023-01-06T12:00:11.560Z,1.33
2023-01-06T12:03:07.461Z,4.63
2023-01-06T12:05:39.081Z,1.90
2023-01-06T12:08:15.815Z,0.90
2023-01-06T12:10:45.239Z,1.00
2023-01-06T12:13:14.618Z,1.30
2023-01-06T12:15:43.208Z,1.20
2023-01-06T12:18:20.258Z,1.60
2023-01-06T12:20:50.220Z,1.00
2023-01-06T12:23:39.516Z,2.47
2023-01-06T12:26:14.646Z,1.93
2023-01-06T12:28:45.321Z,2.30
2023-01-06T12:31:37.169Z,5.00
2023-01-06T12:34:10.013Z,1.80
2023-01-06T12:36:45.810Z,3.73
2023-01-06T12:39:19.013Z,1.53
2023-01-06T12:42:06.692Z,2.90
2023-01-06T12:44:44.771Z,1.80
2023-01-06T12:47:17.444Z,2.20
2023-01-06T12:50:04.189Z,1.67
2023-01-06T12:52:37.283Z,1.77
2023-01-06T12:55:05.227Z,1.87
2023-01-06T12:57:53.721Z,1.80
2023-01-06T13:00:48.666Z,3.33
2023-01-06T13:03:21.163Z,3.17
2023-01-06T13:06:13.886Z,2.80
2023-01-06T13:08:58.833Z,3.03
2023-01-06T13:11:47.274Z,2.40
2023-01-06T13:14:17.188Z,4.77
2023-01-06T13:16:51.432Z,1.80
2023-01-06T13:19:39.556Z,3.77
2023-01-06T13:22:11.117Z,2.23
2023-01-06T13:24:57.402Z,3.60
2023-01-06T13:27:33.836Z,2.33
2023-01-06T13:30:34.739Z,3.07
2023-01-06T13:33:29.483Z,3.43
2023-01-06T13:36:14.508Z,1.90
2023-01-06T13:39:05.529Z,1.70
2023-01-06T13:41:36.852Z,4.10
2023-01-06T13:44:10.004Z,3.00
2023-01-06T13:46:37.461Z,2.60
2023-01-06T13:49:05.908Z,2.47
2023-01-06T13:51:36.611Z,3.03
2023-01-06T13:54:03.937Z,1.80
2023-01-06T13:56:33.328Z,2.37
2023-01-06T13:59:20.279Z,2.67
2023-01-06T14:01:47.678Z,2.10
2023-01-06T14:04:33.031Z,1.53
2023-01-06T14:07:01.151Z,2.43
2023-01-06T14:09:28.871Z,3.37
2023-01-06T14:12:09.297Z,2.10
2023-01-06T14:14:39.141Z,1.87
2023-01-06T14:17:06.528Z,1.40
2023-01-06T14:19:39.848Z,2.60
2023-01-06T14:22:16.932Z,1.80
2023-01-06T14:24:51.228Z,2.10
2023-01-06T14:27:46.771Z,1.77
2023-01-06T14:30:25.439Z,2.83
2023-01-06T14:32:52.180Z,3.63
2023-01-06T14:35:35.502Z,2.30
2023-01-06T14:38:15.015Z,1.60
2023-01-06T14:40:51.542Z,2.83
2023-01-06T14:43:30.011Z,3.73
2023-01-06T14:46:01.543Z,2.53
2023-01-06T14:48:32.247Z,3.30
2023-01-06T14:50:59.151Z,3.77
2023-01-06T14:53:35.695Z,2.33
2023-01-06T14:56:03.538Z,3.67
2023-01-06T14:58:38.160Z,5.57
2023-01-06T15:01:06.862Z,3.00
2023-01-06T15:03:34.677Z,4.27
2023-01-06T15:06:20.894Z,6.23
2023-01-06T15:08:48.550Z,5.87
2023-01-06T15:11:28.367Z,3.80
2023-01-06T15:13:55.834Z,6.70
2023-01-06T15:16:35.821Z,4.97
2023-01-06T15:19:06.923Z,5.33
2023-01-06T15:21:45.834Z,3.77
2023-01-06T15:24:35.390Z,4.50
2023-01-06T15:27:08.215Z,3.60
2023-01-06T15:29:35.140Z,2.97
2023-01-06T15:32:03.060Z,3.40
2023-01-06T15:34:35.318Z,4.23
2023-01-06T15:37:04.465Z,3.03
2023-01-06T15:39:33.899Z,3.30
2023-01-06T15:42:02.339Z,3.43
2023-01-06T15:44:35.454Z,3.47
2023-01-06T15:47:07.986Z,4.70
2023-01-06T15:49:38.647Z,3.57
2023-01-06T15:52:08.123Z,3.73
2023-01-06T15:54:37.833Z,2.73
2023-01-06T15:57:16.608Z,3.57
2023-01-06T15:59:56.904Z,4.63
2023-01-06T16:02:28.334Z,4.70
2023-01-06T16:04:55.912Z,4.63
2023-01-06T16:07:41.228Z,5.33
2023-01-06T16:10:29.825Z,5.07
2023-01-06T16:13:18.633Z,4.67
2023-01-06T16:15:53.686Z,5.60
2023-01-06T16:18:35.142Z,4.00
2023-01-06T16:21:20.260Z,4.50
2023-01-06T16:23:50.866Z,4.80
2023-01-06T16:26:23.700Z,13.13
2023-01-06T16:28:53.081Z,12.97
2023-01-06T16:31:36.698Z,10.00
2023-01-06T16:34:21.656Z,9.73
2023-01-06T16:36:56.199Z,8.13
2023-01-06T16:39:23.006Z,6.17
2023-01-06T16:41:58.470Z,5.70
2023-01-06T16:44:26.060Z,6.43
2023-01-06T16:46:53.079Z,5.90
2023-01-06T16:49:20.729Z,5.07
2023-01-06T16:51:47.700Z,6.13
2023-01-06T16:54:18.539Z,5.60
2023-01-06T16:56:46.490Z,4.63
2023-01-06T16:59:18.352Z,4.60
2023-01-06T17:01:47.312Z,4.80
2023-01-06T17:04:15.500Z,11.10
2023-01-06T17:06:43.966Z,5.17
2023-01-06T17:09:21.644Z,5.53
2023-01-06T17:11:52.755Z,5.20
2023-01-06T17:14:21.774Z,4.40
2023-01-06T17:16:49.271Z,5.27
2023-01-06T17:19:27.409Z,3.73
2023-01-06T17:22:26.247Z,4.03
2023-01-06T17:24:53.158Z,4.30
2023-01-06T17:27:29.969Z,3.93
2023-01-06T17:30:01.422Z,3.97
2023-01-06T17:32:38.017Z,3.37
2023-01-06T17:35:23.503Z,3.77
2023-01-06T17:37:50.261Z,4.33
2023-01-06T17:40:19.010Z,3.57
2023-01-06T17:42:53.894Z,3.27
2023-01-06T17:45:28.452Z,5.53
2023-01-06T17:47:56.692Z,4.37
2023-01-06T17:50:27.833Z,3.93
2023-01-06T17:53:36.110Z,3.93
2023-01-06T17:56:09.046Z,4.27
2023-01-06T17:58:41.250Z,3.47
2023-01-06T18:01:10.067Z,4.77
2023-01-06T18:03:39.780Z,4.93
2023-01-06T18:06:08.813Z,3.70
2023-01-06T18:08:37.673Z,3.10
2023-01-06T18:11:10.457Z,4.00
2023-01-06T18:13:39.857Z,3.20
2023-01-06T18:16:32.363Z,5.27
2023-01-06T18:19:07.095Z,4.40
2023-01-06T18:21:39.087Z,3.87
2023-01-06T18:24:39.157Z,8.37
2023-01-06T18:27:16.436Z,6.27
2023-01-06T18:29:44.595Z,7.10
2023-01-06T18:32:31.812Z,6.33
2023-01-06T18:35:06.176Z,6.03
2023-01-06T18:37:35.254Z,6.37
2023-01-06T18:40:05.896Z,5.13
2023-01-06T18:42:35.980Z,6.47
2023-01-06T18:45:08.954Z,10.57
2023-01-06T18:47:41.611Z,5.60
2023-01-06T18:50:44.297Z,4.50
2023-01-06T18:53:40.049Z,4.10
2023-01-06T18:56:15.485Z,5.90
2023-01-06T18:58:49.606Z,6.27
2023-01-06T19:01:35.229Z,4.93
2023-01-06T19:04:32.671Z,3.97
2023-01-06T19:07:09.429Z,7.30
2023-01-06T19:09:44.405Z,3.73
2023-01-06T19:12:30.401Z,4.83
2023-01-06T19:15:21.839Z,3.80
2023-01-06T19:17:50.164Z,3.67
2023-01-06T19:20:23.133Z,2.70
2023-01-06T19:22:50.115Z,3.53
2023-01-06T19:25:29.171Z,3.07
2023-01-06T19:27:56.793Z,4.83
2023-01-06T19:30:29.546Z,2.93
2023-01-06T19:33:10.313Z,4.07
2023-01-06T19:35:37.775Z,4.40
2023-01-06T19:38:20.231Z,3.77
2023-01-06T19:40:46.909Z,3.00
2023-01-06T19:43:17.256Z,3.50
2023-01-06T19:45:44.435Z,2.87
2023-01-06T19:48:30.404Z,3.53
2023-01-06T19:51:19.899Z,4.53
2023-01-06T19:53:52.764Z,2.97
2023-01-06T19:56:23.363Z,1.90
2023-01-06T19:59:02.872Z,2.40
2023-01-06T20:01:32.574Z,2.07
2023-01-06T20:03:59.627Z,2.30
2023-01-06T20:06:26.512Z,3.73
2023-01-06T20:08:53.666Z,3.97
2023-01-06T20:11:22.365Z,2.77
2023-01-06T20:13:49.307Z,3.20
2023-01-06T20:16:16.535Z,2.77
2023-01-06T20:18:43.243Z,4.03
2023-01-06T20:21:09.904Z,2.83
2023-01-06T20:23:36.745Z,4.27
2023-01-06T20:26:03.916Z,2.87
2023-01-06T20:28:30.569Z,2.53
2023-01-06T20:30:57.633Z,3.63
2023-01-06T20:33:24.714Z,3.67
2023-01-06T20:35:51.705Z,4.57
2023-01-06T20:38:18.464Z,3.03
2023-01-06T20:40:45.527Z,4.83
2023-01-06T20:43:12.175Z,3.90
2023-01-06T20:45:39.259Z,3.10
2023-01-06T20:48:06.218Z,4.47
2023-01-06T20:50:32.947Z,3.73
2023-01-06T20:53:00.152Z,2.97
2023-01-06T20:55:27.232Z,5.10
2023-01-06T20:57:53.891Z,2.57
2023-01-06T21:00:20.974Z,2.27
2023-01-06T21:02:47.736Z,2.43
2023-01-06T21:05:14.893Z,2.13
2023-01-06T21:07:41.586Z,2.13
2023-01-06T21:10:08.787Z,2.20
2023-01-06T21:12:35.938Z,2.57
2023-01-06T21:15:02.657Z,2.83
2023-01-06T21:17:29.331Z,3.60
2023-01-06T21:19:56.460Z,2.17
2023-01-06T21:22:23.708Z,2.90
2023-01-06T21:24:50.949Z,2.40
2023-01-06T21:27:18.074Z,2.30
2023-01-06T21:29:45.012Z,2.40
2023-01-06T21:32:12.027Z,2.30
2023-01-06T21:34:39.228Z,2.70
2023-01-06T21:37:06.345Z,2.73
2023-01-06T21:39:33.007Z,3.17
2023-01-06T21:42:18.662Z,2.57
2023-01-06T21:44:45.589Z,2.20
2023-01-06T21:47:12.735Z,2.40
2023-01-06T21:49:45.994Z,4.13
2023-01-06T21:52:15.468Z,2.50
2023-01-06T21:54:43.982Z,1.90
2023-01-06T21:57:11.408Z,2.00
2023-01-06T21:59:38.631Z,2.47
2023-01-06T22:02:05.758Z,2.20
2023-01-06T22:04:32.547Z,1.90
2023-01-06T22:07:01.832Z,2.90
2023-01-06T22:09:30.862Z,2.90
2023-01-06T22:11:57.989Z,1.73
2023-01-06T22:14:25.867Z,2.00
2023-01-06T22:16:52.922Z,3.00
2023-01-06T22:19:20.047Z,1.80
2023-01-06T22:21:47.301Z,2.13
2023-01-06T22:24:17.289Z,2.47
2023-01-06T22:26:44.471Z,2.00
2023-01-06T22:29:11.566Z,2.07
2023-01-06T22:31:38.626Z,2.10
2023-01-06T22:34:07.161Z,2.17
2023-01-06T22:36:34.788Z,1.87
2023-01-06T22:39:01.469Z,1.90
2023-01-06T22:41:28.530Z,3.00
2023-01-06T22:43:55.684Z,2.70
2023-01-06T22:46:22.880Z,2.77
2023-01-06T22:48:49.652Z,1.93
2023-01-06T22:51:16.520Z,1.90
2023-01-06T22:53:43.622Z,2.30
2023-01-06T22:56:11.493Z,2.10
2023-01-06T22:58:40.919Z,2.23
2023-01-06T23:01:08.528Z,1.83
2023-01-06T23:03:35.911Z,1.50
2023-01-06T23:06:05.824Z,2.80
2023-01-06T23:08:34.161Z,1.90
2023-01-06T23:11:10.514Z,1.70
2023-01-06T23:13:38.688Z,4.40
2023-01-06T23:16:12.995Z,2.73
2023-01-06T23:18:43.230Z,2.50
2023-01-06T23:21:13.947Z,1.97
2023-01-06T23:23:42.451Z,2.77
2023-01-06T23:26:15.265Z,2.77
2023-01-06T23:28:42.873Z,3.33
2023-01-06T23:31:13.540Z,1.93
2023-01-06T23:33:42.157Z,3.13
2023-01-06T23:36:11.007Z,2.67
2023-01-06T23:38:38.041Z,3.70
2023-01-06T23:41:10.171Z,3.07
2023-01-06T23:43:37.710Z,2.00
2023-01-06T23:46:15.918Z,2.10
2023-01-06T23:48:43.447Z,2.70
2023-01-06T23:51:11.111Z,3.07
2023-01-06T23:53:39.081Z,3.77
2023-01-06T23:56:13.018Z,3.03
2023-01-06T23:58:41.160Z,1.60
